Las Palmas De Gran Canaria/Gando, Spain
Current Conditions -  °F | °C
As of 7:30 PM on Thursday 23 Oct 2014 (Local Time) from GCLP Reporting Station
Clear Clear  
Wind Chill: 79°   Ceiling: Unl
Heat Index: 81°   Visibility: 6mi
Dew Point: 68°   Wind: 10mph
Humidity: 69%   Direction: 20°NNE
Pressure: 30"   Gusts: NA
Location:  27.96°N, 15.59°W
Report Text: GCLP 231830Z 02009KT CAVOK 26/20 Q1016 NOSIG
Loading
Personal Weather Stations






























Interactive Weather Map
Tropical Storm Tracking
New forecast layout! Learn more

10-Day Weather Forecast

Advertisements
Track Severe Weather on mobile